Página principal
METAR-TAF:

METAR-TAF

Aeroportos :

Aeroporto Internacional de Pequim-Capital

Pequim, China

latitude: 39-56N, longitude: 116-17E, altura: 55 m

Observação actual do tempo

O boletim foi feito há 28 minutos, às 14:00 UTC
Vento 4 kt de nor-noroeste, variando entre oes-noroeste e nordeste
Temperatura 28°C
Humidade 89%
Pressão 1005 hPa
Visibilidade: 4200 m
Poucas nuvensa uma altura de 5000 ft, Cumulus congestus.
neblina

METAR: ZBAA 181400Z 34002MPS 300V040 4200 BR FEW050TCU 28/26 Q1005 BECMG AT1440 TS

Hora: 22:28 (14:28 UTC)

Previsão

O boletim foi feito há 1 hora e 23 minutos, às 13:05 UTC
Previsão válida de 18 às 12 UTC a 19 às 12 UTC
Vento 8 kt de sudeste
Visibilidade: 6000 m
Temporariamente
de 18 às 15 UTC a 18 às 19 UTC
Poucas nuvensa uma altura de 4000 ft, Cumulonimbus.
Nuvens fragmentadasa uma altura de 4000 ft
trovoada, chuva fraca

TAF: ZBAA 181305Z 1812/1912 14004MPS 6000 NSC TX33/1907Z TN23/1821Z TEMPO 1815/1819 -TSRA FEW040CB BKN040

Observações e previsões do tempo de mais de 4000 aeroportos (mensagens METAR e TAF).

As estações disponíveis são os pontos amarelos e vermelhos sobre o mapa.

Mova o rato sobre o mapa para ver o nome da estação.

Depois clique no ponto para visualizar as observações e previsões meteorológicas.

Para alterar o mapa : clique nos botões verdes com uma cruz preta para aumentar o zoom; no botão verde com uma pitada de zoom; ou nas setas verdes para mapas adjacentes.


METAR-TAF: